Time;durP1;ratioP1;P1;durP2;ratioP2;P2;SDS_P1;SDS_P2;PMS_P1;PMS_P2;Temp;Humidity;BMP_temperature;BMP_pressure;BME280_temperature;BME280_humidity;BME280_pressure;Samples;Min_cycle;Max_cycle;Signal;HPM_P1;HPM_P2
2023/04/30 03:00:59;;;;;;;17.33;15.77;;;11.00;99.90;;;;;;5715536;23;20232;-76
2023/04/30 03:03:25;;;;;;;16.77;15.33;;;11.00;99.90;;;;;;4974945;28;20339;-76
2023/04/30 03:05:51;;;;;;;16.77;15.47;;;11.00;99.90;;;;;;4974938;28;20212;-76
2023/04/30 03:08:17;;;;;;;18.03;16.30;;;11.10;99.90;;;;;;4971998;28;20189;-76
2023/04/30 03:10:43;;;;;;;17.10;15.50;;;11.10;99.90;;;;;;4972349;28;20723;-75
2023/04/30 03:13:09;;;;;;;16.73;15.33;;;11.10;99.90;;;;;;4971841;28;20185;-76
2023/04/30 03:15:35;;;;;;;18.40;17.00;;;11.10;99.90;;;;;;4956192;28;20276;-76
2023/04/30 03:18:02;;;;;;;18.53;17.03;;;11.10;99.90;;;;;;4971777;28;20221;-77
2023/04/30 03:20:28;;;;;;;19.43;18.03;;;11.00;99.90;;;;;;5013442;23;20232;-81
2023/04/30 03:22:54;;;;;;;17.87;16.57;;;11.00;99.90;;;;;;4997103;28;20203;-81
2023/04/30 03:25:20;;;;;;;18.37;16.77;;;11.00;99.90;;;;;;4997620;28;20265;-80
2023/04/30 03:27:45;;;;;;;18.50;16.93;;;11.00;99.90;;;;;;4980134;28;20235;-82
2023/04/30 03:30:11;;;;;;;26.33;24.13;;;11.00;99.90;;;;;;4976019;28;20208;-82
2023/04/30 03:32:37;;;;;;;18.63;17.23;;;10.90;99.90;;;;;;4977982;28;20277;-82
2023/04/30 03:35:04;;;;;;;16.90;15.47;;;10.90;99.90;;;;;;4992656;28;20228;-82
2023/04/30 03:37:29;;;;;;;16.17;14.97;;;10.80;99.90;;;;;;5000010;28;20215;-81
2023/04/30 03:39:55;;;;;;;16.00;14.67;;;10.80;99.90;;;;;;5011902;28;20207;-80
2023/04/30 03:42:21;;;;;;;17.93;16.30;;;10.70;99.90;;;;;;5012836;28;20208;-81
2023/04/30 03:44:48;;;;;;;21.10;19.43;;;10.60;99.90;;;;;;5007606;28;20238;-81
2023/04/30 03:47:14;;;;;;;22.43;20.83;;;10.60;99.90;;;;;;5009960;28;20175;-82
2023/04/30 03:49:39;;;;;;;28.17;26.17;;;10.60;99.90;;;;;;4995608;28;20203;-81
2023/04/30 03:52:06;;;;;;;32.80;30.63;;;10.60;99.90;;;;;;4995254;28;20188;-81
2023/04/30 03:54:32;;;;;;;26.87;25.00;;;10.50;99.90;;;;;;4995163;28;20540;-81
2023/04/30 03:56:59;;;;;;;22.67;20.87;;;10.50;99.90;;;;;;4994398;28;20294;-82
2023/04/30 03:59:25;;;;;;;15.23;13.93;;;10.40;99.90;;;;;;4994470;28;20202;-81
2023/04/30 04:01:51;;;;;;;13.97;12.63;;;10.40;99.90;;;;;;4995255;28;20176;-81
2023/04/30 04:04:17;;;;;;;36.87;34.37;;;10.30;99.90;;;;;;4994495;28;20227;-79
2023/04/30 04:06:42;;;;;;;45.43;42.67;;;10.30;99.90;;;;;;4994888;28;20195;-82
2023/04/30 04:09:08;;;;;;;46.73;43.80;;;10.30;99.90;;;;;;4996602;28;20298;-81
2023/04/30 04:11:34;;;;;;;44.80;42.10;;;10.30;99.90;;;;;;4998516;28;20184;-81
2023/04/30 04:14:00;;;;;;;35.23;32.73;;;10.20;99.90;;;;;;4996312;28;20181;-81
2023/04/30 04:16:26;;;;;;;37.77;35.33;;;10.20;99.90;;;;;;4996299;28;20558;-81
2023/04/30 04:18:51;;;;;;;41.50;38.80;;;10.20;99.90;;;;;;4995405;28;20782;-81
2023/04/30 04:21:17;;;;;;;37.37;34.77;;;10.20;99.90;;;;;;5016908;28;20197;-79
2023/04/30 04:23:43;;;;;;;37.67;34.83;;;10.20;99.90;;;;;;5022796;28;20192;-80
2023/04/30 04:26:09;;;;;;;48.87;45.80;;;10.20;99.90;;;;;;5016110;28;20767;-81
2023/04/30 04:28:35;;;;;;;36.97;34.47;;;10.30;99.90;;;;;;5008088;28;20184;-81
2023/04/30 04:31:02;;;;;;;38.07;35.53;;;10.30;99.90;;;;;;5010014;28;20184;-81
2023/04/30 04:33:28;;;;;;;58.60;55.07;;;10.40;99.90;;;;;;5008582;28;20188;-81
2023/04/30 04:35:55;;;;;;;87.67;82.63;;;10.40;99.90;;;;;;4996741;28;20180;-80
2023/04/30 04:38:21;;;;;;;61.87;57.97;;;10.50;99.90;;;;;;5002385;28;20210;-80
2023/04/30 04:40:54;;;;;;;88.90;84.00;;;10.50;99.90;;;;;;5012018;28;20215;-80
2023/04/30 04:43:20;;;;;;;101.23;95.43;;;10.60;99.90;;;;;;4985686;28;20176;-80
2023/04/30 04:45:49;;;;;;;24.27;22.57;;;10.60;99.90;;;;;;4983139;28;20550;-82
2023/04/30 04:48:14;;;;;;;14.03;12.73;;;10.70;99.90;;;;;;4980997;28;20271;-79
2023/04/30 04:50:40;;;;;;;14.03;12.60;;;10.80;99.90;;;;;;4982967;28;20209;-80
2023/04/30 04:53:06;;;;;;;14.20;12.90;;;10.80;99.90;;;;;;5021386;28;20184;-80
2023/04/30 04:55:32;;;;;;;32.20;29.93;;;10.90;99.90;;;;;;5023373;28;20183;-79
2023/04/30 04:57:58;;;;;;;35.10;32.80;;;10.90;99.90;;;;;;5022993;28;20216;-75
2023/04/30 05:00:24;;;;;;;36.93;34.57;;;10.90;99.90;;;;;;4995150;28;20209;-77
2023/04/30 05:02:50;;;;;;;38.10;35.50;;;11.00;99.90;;;;;;4994383;28;20187;-77
2023/04/30 05:05:16;;;;;;;39.33;36.77;;;11.00;99.90;;;;;;4996832;28;20172;-77
2023/04/30 05:07:42;;;;;;;36.07;33.50;;;11.10;99.90;;;;;;4995023;28;20663;-77
2023/04/30 05:10:08;;;;;;;32.47;30.13;;;11.10;99.90;;;;;;4998232;28;20204;-77
2023/04/30 05:12:33;;;;;;;41.27;38.33;;;11.10;99.90;;;;;;4999757;28;20191;-77
2023/04/30 05:14:59;;;;;;;44.57;41.80;;;11.20;99.90;;;;;;4997937;28;20267;-77
2023/04/30 05:17:25;;;;;;;42.80;39.90;;;11.20;99.90;;;;;;4997695;28;20707;-77
2023/04/30 05:19:52;;;;;;;43.73;40.77;;;11.20;99.90;;;;;;4998991;28;20208;-77
2023/04/30 05:22:18;;;;;;;31.20;29.10;;;11.30;99.90;;;;;;4998505;28;20188;-77
2023/04/30 05:24:43;;;;;;;22.03;20.40;;;11.40;99.90;;;;;;5001335;28;20186;-77
2023/04/30 05:27:09;;;;;;;43.40;40.70;;;11.60;99.90;;;;;;5001150;28;20636;-77
2023/04/30 05:29:35;;;;;;;32.23;30.10;;;11.90;99.90;;;;;;4996881;28;20201;-76
2023/04/30 05:32:01;;;;;;;15.23;14.03;;;12.00;99.90;;;;;;4998330;28;20226;-77
2023/04/30 05:34:26;;;;;;;34.30;32.00;;;12.40;99.90;;;;;;4998730;28;20191;-77
2023/04/30 05:36:52;;;;;;;22.97;21.37;;;12.80;99.90;;;;;;4997653;28;20778;-77
2023/04/30 05:39:18;;;;;;;54.37;51.03;;;13.10;99.90;;;;;;4997929;28;20589;-77
2023/04/30 05:41:44;;;;;;;43.27;40.60;;;13.40;99.90;;;;;;4997834;28;20177;-77
2023/04/30 05:44:09;;;;;;;17.63;16.30;;;13.50;99.90;;;;;;4997853;28;20190;-77
2023/04/30 05:46:35;;;;;;;14.40;13.10;;;13.60;99.90;;;;;;4996971;28;20617;-76
2023/04/30 05:49:01;;;;;;;14.33;13.17;;;13.70;99.90;;;;;;4997563;28;20200;-77
2023/04/30 05:51:27;;;;;;;11.70;10.67;;;13.90;99.90;;;;;;4998905;28;20180;-77
2023/04/30 05:53:53;;;;;;;11.57;10.37;;;14.10;99.90;;;;;;4998162;28;20176;-77
2023/04/30 05:56:20;;;;;;;11.20;9.97;;;14.30;99.90;;;;;;4996012;28;20242;-77
2023/04/30 05:58:45;;;;;;;11.03;9.93;;;14.30;99.90;;;;;;4994311;28;20200;-77
2023/04/30 06:01:11;;;;;;;13.07;12.03;;;14.40;99.90;;;;;;4994708;28;20187;-77
2023/04/30 06:03:37;;;;;;;14.43;13.37;;;14.50;99.90;;;;;;4994893;28;20183;-76
2023/04/30 06:06:03;;;;;;;13.53;12.33;;;14.50;99.90;;;;;;4993565;28;20840;-76
2023/04/30 06:08:29;;;;;;;11.23;10.13;;;14.60;99.90;;;;;;4994870;28;20189;-76
2023/04/30 06:10:55;;;;;;;10.77;9.87;;;14.20;99.90;;;;;;4994378;28;20702;-76
2023/04/30 06:13:22;;;;;;;11.77;10.77;;;13.70;99.90;;;;;;4997098;28;20188;-76
2023/04/30 06:15:47;;;;;;;11.87;10.20;;;13.30;99.90;;;;;;4996416;28;20239;-76
2023/04/30 06:18:15;;;;;;;10.87;9.87;;;13.20;99.90;;;;;;4993907;28;20714;-75
2023/04/30 06:20:41;;;;;;;11.10;10.20;;;13.20;99.90;;;;;;4997515;28;20297;-76
2023/04/30 06:23:07;;;;;;;11.70;10.60;;;13.30;99.90;;;;;;4996921;28;20181;-80
2023/04/30 06:25:33;;;;;;;12.37;10.93;;;13.40;99.90;;;;;;4997402;28;20184;-80
2023/04/30 06:27:59;;;;;;;10.60;9.80;;;13.70;99.90;;;;;;4997322;28;20180;-82
2023/04/30 06:30:25;;;;;;;11.77;10.67;;;14.00;99.90;;;;;;5003484;28;20211;-84
2023/04/30 06:32:51;;;;;;;11.40;10.43;;;14.30;99.90;;;;;;5006986;28;20187;-84
2023/04/30 06:35:17;;;;;;;11.50;10.33;;;14.40;99.90;;;;;;5008168;28;20184;-83
2023/04/30 06:37:42;;;;;;;10.83;9.87;;;14.60;99.90;;;;;;5012409;28;20212;-84
2023/04/30 06:40:08;;;;;;;9.87;8.80;;;14.70;99.90;;;;;;5013202;28;20200;-83
2023/04/30 06:42:34;;;;;;;9.23;8.33;;;14.50;99.90;;;;;;5006674;28;20707;-83
2023/04/30 06:45:01;;;;;;;10.13;9.20;;;14.10;99.90;;;;;;5004120;28;20272;-83
2023/04/30 06:47:33;;;;;;;11.00;9.30;;;14.20;99.90;;;;;;5006939;28;20188;-83
2023/04/30 06:49:59;;;;;;;10.33;9.33;;;14.30;99.90;;;;;;4993575;28;20231;-83
2023/04/30 06:52:25;;;;;;;10.40;9.50;;;14.60;99.90;;;;;;5013355;28;20181;-83
2023/04/30 06:54:51;;;;;;;13.97;12.63;;;14.70;99.90;;;;;;5005808;28;20208;-83
2023/04/30 06:57:17;;;;;;;46.17;43.23;;;15.10;99.90;;;;;;5000909;28;20628;-80
2023/04/30 06:59:43;;;;;;;71.90;67.97;;;15.50;99.90;;;;;;5003142;28;20231;-79
2023/04/30 07:02:09;;;;;;;22.50;20.90;;;15.70;99.90;;;;;;5008415;28;20187;-81
2023/04/30 07:04:35;;;;;;;15.40;14.30;;;15.80;99.90;;;;;;5006143;28;20188;-80
2023/04/30 07:07:01;;;;;;;14.20;13.10;;;15.90;99.90;;;;;;5005088;28;20180;-81
2023/04/30 07:09:30;;;;;;;19.73;18.23;;;16.10;99.90;;;;;;5002738;28;20204;-81
2023/04/30 07:11:58;;;;;;;21.73;20.27;;;16.40;99.90;;;;;;5000889;28;20204;-80
2023/04/30 07:14:23;;;;;;;12.27;11.10;;;16.60;99.90;;;;;;5004347;28;20188;-81
2023/04/30 07:16:49;;;;;;;8.90;8.17;;;16.70;99.90;;;;;;5000638;28;20214;-79
2023/04/30 07:19:15;;;;;;;8.27;7.57;;;17.00;99.90;;;;;;5000968;28;20214;-80
2023/04/30 07:21:41;;;;;;;9.10;8.37;;;16.90;99.90;;;;;;5000504;28;20692;-80
2023/04/30 07:24:07;;;;;;;12.13;10.93;;;16.50;99.90;;;;;;4999638;28;20189;-79
2023/04/30 07:26:33;;;;;;;9.00;8.23;;;16.30;99.90;;;;;;4998018;28;20187;-83
2023/04/30 07:28:59;;;;;;;8.97;8.27;;;16.50;99.90;;;;;;4999505;28;20226;-80
2023/04/30 07:31:25;;;;;;;12.00;10.90;;;16.60;99.90;;;;;;5001277;28;20180;-80
2023/04/30 07:33:51;;;;;;;12.17;9.50;;;16.30;99.90;;;;;;4982400;28;20189;-82
2023/04/30 07:36:17;;;;;;;9.73;8.70;;;16.40;99.90;;;;;;4994979;28;20184;-81
2023/04/30 07:38:43;;;;;;;10.07;9.07;;;16.80;99.90;;;;;;5010260;28;20212;-79
2023/04/30 07:41:10;;;;;;;12.70;11.80;;;17.10;99.90;;;;;;5017567;28;20173;-83
2023/04/30 07:43:36;;;;;;;13.83;12.80;;;17.30;99.90;;;;;;5017813;28;20195;-82
2023/04/30 07:46:02;;;;;;;13.23;12.33;;;17.40;99.90;;;;;;5017867;28;20180;-80
2023/04/30 07:48:29;;;;;;;16.20;15.03;;;17.20;99.90;;;;;;5014552;28;20184;-81
2023/04/30 07:50:55;;;;;;;14.00;13.10;;;17.30;99.90;;;;;;5013889;28;20157;-83
2023/04/30 07:53:25;;;;;;;13.53;12.53;;;16.90;99.90;;;;;;5016671;28;20236;-82
2023/04/30 07:55:51;;;;;;;16.40;12.77;;;16.80;99.90;;;;;;5006027;28;20214;-75
2023/04/30 07:58:17;;;;;;;12.63;11.83;;;16.80;99.90;;;;;;5010365;28;20212;-79
2023/04/30 08:00:43;;;;;;;14.63;13.57;;;16.90;99.90;;;;;;5005801;28;20234;-80
2023/04/30 08:03:09;;;;;;;16.67;15.27;;;17.10;99.90;;;;;;4991931;28;20605;-77
2023/04/30 08:05:35;;;;;;;12.93;12.03;;;17.10;99.90;;;;;;4991371;28;20188;-77
2023/04/30 08:08:01;;;;;;;14.30;13.40;;;16.90;99.90;;;;;;4992897;28;20522;-77
2023/04/30 08:10:26;;;;;;;13.30;12.27;;;17.10;99.90;;;;;;4992205;28;20208;-77
2023/04/30 08:12:52;;;;;;;16.07;14.97;;;17.20;99.90;;;;;;4992366;28;20718;-77
2023/04/30 08:15:20;;;;;;;15.43;14.40;;;16.80;99.90;;;;;;4992224;28;20203;-77
2023/04/30 08:17:48;;;;;;;14.30;13.20;;;16.40;99.90;;;;;;4990627;28;20673;-76
2023/04/30 08:20:14;;;;;;;15.20;14.27;;;16.40;99.90;;;;;;4992452;28;20215;-76
2023/04/30 08:22:40;;;;;;;14.03;13.17;;;16.40;99.90;;;;;;4990902;28;20196;-78
2023/04/30 08:25:06;;;;;;;15.87;15.03;;;16.70;99.90;;;;;;4993961;28;20183;-76
2023/04/30 08:27:32;;;;;;;11.93;11.10;;;16.60;99.90;;;;;;4992989;28;20211;-76
2023/04/30 08:29:58;;;;;;;7.17;6.77;;;17.10;99.90;;;;;;4995309;28;20231;-77
2023/04/30 08:32:23;;;;;;;7.93;7.23;;;17.40;99.90;;;;;;4996241;28;20184;-77
2023/04/30 08:34:50;;;;;;;8.73;8.20;;;17.90;99.90;;;;;;4995934;28;20223;-77
2023/04/30 08:37:16;;;;;;;8.33;7.83;;;18.10;99.90;;;;;;4994491;28;20207;-77
2023/04/30 08:39:42;;;;;;;8.23;7.73;;;18.30;99.90;;;;;;4995983;28;20208;-78
2023/04/30 08:42:10;;;;;;;8.87;8.47;;;18.10;99.90;;;;;;4997585;28;20206;-77
2023/04/30 08:44:42;;;;;;;8.80;8.27;;;17.60;99.90;;;;;;5003908;28;20279;-78
2023/04/30 08:47:13;;;;;;;9.97;9.33;;;17.60;99.90;;;;;;5002235;28;20188;-78
2023/04/30 08:49:39;;;;;;;9.70;9.10;;;17.70;99.70;;;;;;4994727;28;20208;-76
2023/04/30 08:52:06;;;;;;;11.73;10.90;;;17.80;99.90;;;;;;4993903;28;20554;-77
2023/04/30 08:54:34;;;;;;;12.17;11.47;;;17.50;99.40;;;;;;4993684;28;20283;-76
2023/04/30 08:57:00;;;;;;;8.70;8.20;;;17.60;99.30;;;;;;4991270;28;20307;-76
2023/04/30 08:59:26;;;;;;;5.53;5.23;;;18.40;99.10;;;;;;4991976;28;20203;-76
2023/04/30 09:01:52;;;;;;;4.60;4.40;;;18.80;96.10;;;;;;4990615;28;20211;-76
2023/04/30 09:04:18;;;;;;;4.87;4.60;;;18.90;95.20;;;;;;4991638;28;20239;-76
2023/04/30 09:06:43;;;;;;;4.57;4.37;;;19.00;95.20;;;;;;4993246;28;20219;-76
2023/04/30 09:09:14;;;;;;;4.70;4.30;;;19.00;94.30;;;;;;4992974;28;20227;-77
2023/04/30 09:11:41;;;;;;;6.80;4.90;;;19.40;94.30;;;;;;4996740;28;20188;-77
2023/04/30 09:14:07;;;;;;;4.17;3.97;;;19.20;93.00;;;;;;4996175;28;20188;-77
2023/04/30 09:16:50;;;;;;;4.67;4.33;;;18.90;93.50;;;;;;4993019;28;20223;-77
2023/04/30 09:19:30;;;;;;;5.10;4.70;;;18.70;93.10;;;;;;5016097;23;20223;-76
2023/04/30 09:21:56;;;;;;;4.43;4.23;;;18.40;92.60;;;;;;5008188;28;20188;-78
2023/04/30 09:24:22;;;;;;;6.20;5.90;;;17.90;93.60;;;;;;4996545;28;20184;-79
2023/04/30 09:26:49;;;;;;;4.57;4.27;;;18.00;95.50;;;;;;4994577;28;20188;-79
2023/04/30 09:29:15;;;;;;;4.67;4.47;;;18.40;93.60;;;;;;4996694;28;20204;-77
2023/04/30 09:31:47;;;;;;;5.20;4.77;;;18.70;93.30;;;;;;4995948;28;20849;-77
2023/04/30 09:34:14;;;;;;;4.70;4.40;;;19.30;93.20;;;;;;4983058;28;20200;-77
2023/04/30 09:36:53;;;;;;;5.40;4.20;;;19.40;92.10;;;;;;4994480;28;20203;-79
2023/04/30 09:39:19;;;;;;;6.53;4.87;;;18.80;92.40;;;;;;4996181;28;20291;-78
2023/04/30 09:41:45;;;;;;;5.30;4.90;;;18.40;94.10;;;;;;4984656;28;20185;-79
2023/04/30 09:44:27;;;;;;;5.10;4.80;;;18.20;94.50;;;;;;4999842;28;20288;-79
2023/04/30 09:46:54;;;;;;;6.43;5.83;;;17.80;94.20;;;;;;4997929;28;20298;-79
2023/04/30 09:49:20;;;;;;;7.60;7.10;;;17.40;94.30;;;;;;4998460;28;20343;-78
2023/04/30 09:51:57;;;;;;;10.30;9.60;;;17.20;94.60;;;;;;5006028;28;20269;-79
2023/04/30 09:54:26;;;;;;;14.13;13.23;;;17.10;95.10;;;;;;4973927;28;20186;-80
2023/04/30 09:56:55;;;;;;;13.70;12.90;;;17.20;96.00;;;;;;4960814;29;20213;-78
2023/04/30 09:59:22;;;;;;;13.60;12.83;;;17.50;95.70;;;;;;4960191;29;20594;-79
2023/04/30 10:01:51;;;;;;;13.47;12.77;;;17.30;95.60;;;;;;4960701;28;20630;-78
2023/04/30 10:04:17;;;;;;;12.70;11.70;;;17.10;95.90;;;;;;4997295;28;20185;-79
2023/04/30 10:06:44;;;;;;;11.97;10.97;;;16.90;96.90;;;;;;4998135;28;20192;-78
2023/04/30 10:09:14;;;;;;;13.97;13.23;;;17.10;97.40;;;;;;4998852;28;20262;-78
2023/04/30 10:11:43;;;;;;;14.33;13.40;;;17.30;96.30;;;;;;5001842;28;20193;-78
2023/04/30 10:14:13;;;;;;;14.47;13.57;;;17.10;96.50;;;;;;4983167;28;20209;-79
2023/04/30 10:16:46;;;;;;;12.87;12.17;;;17.10;96.50;;;;;;4978784;28;20252;-79
2023/04/30 10:19:19;;;;;;;14.20;13.20;;;17.10;95.20;;;;;;4979082;28;20233;-79
2023/04/30 10:21:46;;;;;;;11.30;10.70;;;17.20;96.00;;;;;;4978857;28;20204;-78
2023/04/30 10:24:18;;;;;;;10.30;9.53;;;17.50;94.50;;;;;;4994758;28;20178;-78
2023/04/30 10:26:45;;;;;;;5.20;4.87;;;18.10;94.60;;;;;;4997697;28;20558;-78
2023/04/30 10:29:13;;;;;;;4.80;4.50;;;19.20;92.80;;;;;;4997970;28;20544;-79
2023/04/30 10:31:40;;;;;;;4.97;4.67;;;19.30;91.00;;;;;;4997911;28;20230;-80
2023/04/30 10:34:15;;;;;;;5.00;4.70;;;19.30;91.70;;;;;;4981256;28;20228;-79
2023/04/30 10:36:47;;;;;;;5.43;5.03;;;19.10;92.50;;;;;;4978983;28;20180;-77
2023/04/30 10:39:19;;;;;;;7.30;6.70;;;19.40;93.30;;;;;;4977715;28;20201;-79
2023/04/30 10:41:46;;;;;;;5.63;5.33;;;19.40;92.50;;;;;;4980017;28;20192;-78
2023/04/30 10:44:12;;;;;;;6.10;5.70;;;19.50;92.30;;;;;;4997627;28;20180;-78
2023/04/30 10:46:38;;;;;;;6.50;6.00;;;19.00;93.20;;;;;;4996991;28;20300;-79
2023/04/30 10:49:04;;;;;;;10.53;6.70;;;18.50;94.10;;;;;;4997850;28;20676;-79
2023/04/30 10:51:47;;;;;;;6.70;6.03;;;18.40;94.60;;;;;;4992670;28;20196;-78
2023/04/30 10:54:24;;;;;;;7.10;6.60;;;18.00;94.00;;;;;;4980214;28;20656;-79
2023/04/30 10:56:51;;;;;;;7.63;7.07;;;18.20;94.30;;;;;;4976396;28;20204;-80
2023/04/30 10:59:17;;;;;;;5.00;4.70;;;18.50;94.70;;;;;;4977143;28;20261;-78
2023/04/30 11:02:00;;;;;;;5.47;5.03;;;18.50;91.70;;;;;;4996361;28;20272;-79
2023/04/30 11:04:26;;;;;;;4.97;4.53;;;18.40;91.80;;;;;;4995912;28;20184;-79
2023/04/30 11:06:52;;;;;;;6.60;5.67;;;18.60;91.40;;;;;;4996919;28;20247;-79
2023/04/30 11:09:19;;;;;;;5.97;5.57;;;19.00;91.30;;;;;;4994387;28;20212;-79
2023/04/30 11:11:46;;;;;;;5.73;5.33;;;19.50;89.10;;;;;;4996699;28;20188;-79
2023/04/30 11:14:19;;;;;;;5.53;5.23;;;19.30;89.80;;;;;;4995173;28;20195;-79
2023/04/30 11:16:48;;;;;;;7.17;5.67;;;19.40;88.70;;;;;;4995706;28;20185;-79
2023/04/30 11:19:14;;;;;;;7.47;6.77;;;19.10;89.00;;;;;;4984854;28;20237;-78
2023/04/30 11:21:41;;;;;;;5.63;5.33;;;18.90;90.40;;;;;;4973807;28;20202;-77
2023/04/30 11:24:06;;;;;;;4.97;4.67;;;18.80;90.70;;;;;;4971572;28;20185;-79
2023/04/30 11:27:07;;;;;;;6.00;5.50;;;18.30;91.60;;;;;;4977710;28;20308;-79
2023/04/30 11:29:34;;;;;;;5.50;5.07;;;18.20;91.20;;;;;;4975665;28;20703;-78
2023/04/30 11:32:00;;;;;;;4.87;4.47;;;18.00;91.30;;;;;;4996373;28;20188;-78
2023/04/30 11:34:26;;;;;;;6.03;5.53;;;17.90;92.30;;;;;;4995493;28;20544;-78
2023/04/30 11:36:57;;;;;;;5.63;5.27;;;18.10;92.60;;;;;;4985293;28;20204;-79
2023/04/30 11:39:25;;;;;;;5.07;4.77;;;18.40;91.90;;;;;;4989952;28;20212;-78
2023/04/30 11:41:51;;;;;;;5.53;5.13;;;18.00;91.70;;;;;;4961689;28;20199;-79
2023/04/30 11:44:27;;;;;;;6.77;6.07;;;18.00;92.50;;;;;;4971779;28;20702;-78
2023/04/30 11:46:53;;;;;;;5.27;4.87;;;17.90;92.10;;;;;;4954771;28;20672;-79
2023/04/30 11:49:22;;;;;;;4.80;4.53;;;17.90;92.40;;;;;;4972046;28;20216;-74
2023/04/30 11:51:49;;;;;;;5.17;4.80;;;18.10;92.10;;;;;;4990955;28;20543;-79
2023/04/30 11:54:15;;;;;;;5.53;5.13;;;18.30;92.00;;;;;;4997330;28;20641;-79
2023/04/30 11:56:49;;;;;;;4.93;4.53;;;18.40;91.90;;;;;;4993767;28;20191;-74
2023/04/30 11:59:16;;;;;;;5.90;5.40;;;18.40;91.20;;;;;;4991257;28;20208;-76
2023/04/30 12:01:42;;;;;;;4.70;4.40;;;18.50;92.10;;;;;;4973452;28;20181;-76
2023/04/30 12:04:08;;;;;;;5.33;4.73;;;18.60;92.00;;;;;;4972072;28;20217;-80
2023/04/30 12:06:35;;;;;;;4.80;4.40;;;18.80;92.30;;;;;;4965185;28;20272;-77
2023/04/30 12:09:06;;;;;;;6.30;5.30;;;18.70;91.40;;;;;;4984044;28;20267;-79
2023/04/30 12:11:33;;;;;;;7.03;5.40;;;18.50;91.50;;;;;;4987148;28;20649;-77
2023/04/30 12:14:11;;;;;;;5.10;4.83;;;18.60;92.70;;;;;;4992071;28;20195;-80
2023/04/30 12:16:47;;;;;;;4.70;4.40;;;18.70;91.90;;;;;;4992322;28;20184;-79
2023/04/30 12:19:15;;;;;;;5.27;4.97;;;19.00;91.20;;;;;;5002514;28;20277;-79
2023/04/30 12:21:44;;;;;;;5.47;5.07;;;18.90;90.50;;;;;;4978210;28;20189;-78
2023/04/30 12:24:14;;;;;;;5.00;4.60;;;18.90;91.60;;;;;;4978114;28;20216;-79
2023/04/30 12:26:41;;;;;;;4.90;4.47;;;18.90;91.20;;;;;;4983441;28;20181;-79
2023/04/30 12:29:14;;;;;;;5.90;5.50;;;18.40;91.60;;;;;;4978192;28;20180;-78
2023/04/30 12:31:41;;;;;;;5.57;5.10;;;18.40;92.00;;;;;;4989878;28;20188;-78
2023/04/30 12:34:08;;;;;;;6.80;4.73;;;18.70;92.00;;;;;;4998305;28;20283;-77
2023/04/30 12:36:37;;;;;;;6.53;5.13;;;19.20;91.90;;;;;;4993670;28;20698;-77
2023/04/30 12:39:11;;;;;;;6.13;5.53;;;19.50;89.90;;;;;;4992710;28;20180;-78
2023/04/30 12:41:48;;;;;;;5.20;4.90;;;19.70;90.10;;;;;;4974735;28;20178;-77
2023/04/30 12:44:23;;;;;;;5.23;4.93;;;19.70;87.80;;;;;;4973074;28;20185;-77
2023/04/30 12:46:52;;;;;;;4.60;4.17;;;19.40;89.10;;;;;;4991027;28;20177;-77
2023/04/30 12:49:33;;;;;;;5.30;5.00;;;18.80;90.30;;;;;;4984994;28;20201;-78
2023/04/30 12:52:08;;;;;;;5.70;5.30;;;18.70;90.30;;;;;;4986964;28;20852;-77
2023/04/30 12:54:35;;;;;;;5.67;5.07;;;18.70;90.60;;;;;;4971941;28;20211;-77
2023/04/30 12:57:07;;;;;;;5.37;4.97;;;18.40;90.80;;;;;;4972669;28;20212;-78
2023/04/30 12:59:57;;;;;;;5.97;5.33;;;18.60;90.60;;;;;;4971359;28;20283;-77
2023/04/30 13:02:25;;;;;;;5.00;4.70;;;18.70;90.10;;;;;;4953094;28;20187;-77
2023/04/30 13:04:52;;;;;;;5.90;5.37;;;18.90;90.70;;;;;;4955950;28;20182;-77
2023/04/30 13:07:19;;;;;;;5.57;5.27;;;18.70;89.70;;;;;;4955944;28;20189;-77
2023/04/30 13:09:44;;;;;;;7.87;6.30;;;18.30;90.30;;;;;;4959768;28;20201;-78
2023/04/30 13:12:10;;;;;;;7.27;5.77;;;18.10;91.60;;;;;;4997609;28;20671;-77
2023/04/30 13:14:36;;;;;;;4.53;4.33;;;18.30;90.90;;;;;;4997123;28;20231;-77
2023/04/30 13:17:05;;;;;;;5.97;5.27;;;18.50;90.60;;;;;;4979932;28;20212;-76
2023/04/30 13:19:31;;;;;;;4.87;4.57;;;18.60;91.00;;;;;;4978200;28;20577;-76
2023/04/30 13:22:00;;;;;;;5.27;4.97;;;18.80;90.30;;;;;;4994076;28;20180;-77
2023/04/30 13:24:26;;;;;;;5.80;5.40;;;19.00;90.40;;;;;;4996762;28;20176;-76
2023/04/30 13:26:54;;;;;;;5.23;4.80;;;19.40;89.50;;;;;;4996374;28;20245;-77
2023/04/30 13:29:19;;;;;;;4.90;4.60;;;19.40;88.50;;;;;;5000154;28;20211;-77
2023/04/30 13:31:47;;;;;;;7.00;4.97;;;19.20;87.30;;;;;;4997935;28;20188;-78
2023/04/30 13:34:14;;;;;;;4.90;4.60;;;19.20;89.00;;;;;;4994338;28;20195;-77
2023/04/30 13:36:40;;;;;;;5.27;4.97;;;19.10;88.40;;;;;;4997028;28;20638;-78
2023/04/30 13:39:06;;;;;;;7.30;6.70;;;19.00;88.40;;;;;;4995669;28;20323;-78
2023/04/30 13:41:32;;;;;;;6.15;5.75;;;20.00;85.50;;;;;;4981441;28;20259;-78
2023/04/30 13:43:59;;;;;;;5.80;5.30;;;20.70;83.50;;;;;;4978076;28;20177;-78
2023/04/30 13:46:25;;;;;;;6.80;6.30;;;20.40;82.90;;;;;;4976148;28;20181;-77
2023/04/30 13:48:52;;;;;;;5.87;5.57;;;19.70;84.30;;;;;;4987615;28;20189;-77
2023/04/30 13:51:18;;;;;;;5.30;5.00;;;19.50;85.20;;;;;;4992368;28;20291;-77
2023/04/30 13:53:44;;;;;;;5.43;5.13;;;19.50;85.90;;;;;;4995597;28;20181;-78
2023/04/30 13:56:11;;;;;;;7.23;6.53;;;19.90;84.80;;;;;;4997202;28;20216;-77
2023/04/30 13:58:37;;;;;;;10.10;9.50;;;20.70;82.50;;;;;;4996872;28;20215;-77
2023/04/30 14:01:03;;;;;;;27.08;25.52;;;21.80;79.10;;;;;;4990166;28;20193;-77
2023/04/30 14:03:28;;;;;;;33.17;31.52;;;22.20;75.90;;;;;;4978333;28;20200;-78
2023/04/30 14:05:54;;;;;;;36.10;34.22;;;21.90;75.90;;;;;;4978980;28;20184;-77
2023/04/30 14:08:20;;;;;;;23.10;21.83;;;21.00;77.00;;;;;;4977991;28;20193;-77
2023/04/30 14:10:46;;;;;;;11.50;10.90;;;20.30;79.30;;;;;;4983656;28;20298;-77
2023/04/30 14:13:12;;;;;;;10.03;9.50;;;20.10;81.80;;;;;;4995328;28;20648;-77
2023/04/30 14:15:38;;;;;;;7.23;6.63;;;20.10;82.20;;;;;;4994211;28;20208;-77
2023/04/30 14:18:04;;;;;;;9.37;8.63;;;20.00;83.00;;;;;;4995835;28;20234;-77
2023/04/30 14:20:29;;;;;;;9.37;8.87;;;20.30;80.90;;;;;;5000619;28;20212;-77
2023/04/30 14:22:55;;;;;;;9.37;8.67;;;20.10;81.90;;;;;;4993284;28;20193;-76
2023/04/30 14:25:21;;;;;;;10.80;10.10;;;20.20;81.80;;;;;;4987843;28;20287;-77
2023/04/30 14:27:47;;;;;;;8.10;7.60;;;19.90;81.40;;;;;;4986255;28;20560;-77
2023/04/30 14:30:12;;;;;;;8.63;7.97;;;19.80;82.20;;;;;;4987222;28;20201;-78
2023/04/30 14:32:38;;;;;;;15.07;14.00;;;20.50;81.10;;;;;;4995995;28;20275;-78
2023/04/30 14:35:05;;;;;;;20.88;19.77;;;21.40;78.80;;;;;;4995794;28;20180;-78
2023/04/30 14:37:30;;;;;;;35.90;34.05;;;21.80;77.90;;;;;;4996607;28;20266;-78
2023/04/30 14:39:57;;;;;;;30.85;29.35;;;21.40;77.50;;;;;;4996273;28;20204;-77
2023/04/30 14:42:23;;;;;;;15.07;14.27;;;20.30;79.10;;;;;;4977409;28;20588;-78
2023/04/30 14:44:49;;;;;;;10.13;9.60;;;19.70;81.20;;;;;;4977672;28;20177;-77
2023/04/30 14:47:15;;;;;;;12.77;12.07;;;19.80;81.20;;;;;;4974647;28;20176;-77
2023/04/30 14:49:40;;;;;;;16.83;16.02;;;20.60;79.40;;;;;;4975243;28;20209;-77
2023/04/30 14:52:06;;;;;;;25.90;24.63;;;21.40;77.30;;;;;;4991620;28;20184;-78
2023/04/30 14:54:32;;;;;;;23.58;22.38;;;21.50;76.40;;;;;;4994852;28;20184;-77
2023/04/30 14:56:58;;;;;;;15.07;14.27;;;21.30;77.50;;;;;;4999686;28;20204;-77
2023/04/30 14:59:24;;;;;;;6.82;6.43;;;20.80;79.30;;;;;;4997885;28;20205;-78
2023/04/30 15:01:49;;;;;;;8.35;7.80;;;20.30;82.00;;;;;;4981015;28;20174;-77
2023/04/30 15:04:15;;;;;;;5.63;5.32;;;20.10;81.00;;;;;;4976644;28;20275;-78
2023/04/30 15:06:41;;;;;;;4.87;4.47;;;19.60;82.20;;;;;;4977329;28;20181;-77
2023/04/30 15:09:07;;;;;;;5.87;5.47;;;19.30;82.90;;;;;;4976037;28;20185;-77
2023/04/30 15:11:32;;;;;;;5.50;5.10;;;19.40;82.30;;;;;;4988369;28;20172;-78
2023/04/30 15:13:58;;;;;;;5.77;5.40;;;19.70;82.20;;;;;;4995752;28;20322;-78
2023/04/30 15:16:25;;;;;;;5.32;5.03;;;20.20;80.30;;;;;;4995060;28;20645;-78
2023/04/30 15:18:51;;;;;;;6.93;6.33;;;20.50;81.20;;;;;;4995143;28;20223;-77
2023/04/30 15:21:17;;;;;;;7.65;6.88;;;20.70;79.30;;;;;;5023487;23;20232;-81
2023/04/30 15:23:43;;;;;;;7.13;6.73;;;20.30;79.90;;;;;;5010212;28;20505;-80
2023/04/30 15:26:12;;;;;;;5.22;4.93;;;20.20;79.80;;;;;;5011995;28;20180;-80
2023/04/30 15:28:37;;;;;;;4.93;4.63;;;20.00;81.20;;;;;;5008815;28;20256;-80
2023/04/30 15:31:06;;;;;;;5.93;5.43;;;19.80;82.40;;;;;;4991994;28;20240;-81
2023/04/30 15:33:33;;;;;;;5.60;5.30;;;19.70;81.20;;;;;;4990930;28;20225;-79
2023/04/30 15:35:59;;;;;;;5.60;5.30;;;19.60;81.90;;;;;;4981494;28;20559;-80